Stratford, California
Current Conditions -  °F | °C
As of 8:56 PM on Thursday 30 Oct 2014 (Local Time) from KNLC Reporting Station
Scattered Clouds Scattered Clouds  
Wind Chill: 71°   Ceiling: Unl
Heat Index: 71°   Visibility: 10mi
Dew Point: 41°   Wind: 13mph
Humidity: 34%   Direction: 250°WSW
Pressure: 29.89"   Gusts: NA
Location:  36.19°N, 119.82°W
Report Text: KNLC 310356Z 25011KT 10SM FEW140 FEW180 SCT230 22/05 A2989 RMK AO2 SLP120 RH/33 T02170050 $
Loading
Personal Weather Stations






























Interactive Weather Map
Tropical Storm Tracking
New forecast layout! Learn more

10-Day Weather Forecast

Advertisements
Track Severe Weather on mobile